メインページ
METAR-TAF:

METAR-TAF

空港 :

ウラジオストク, ロシア

ウラジオストク国際空港

緯度: 43-07N, 経度: 131-56E, 海抜: 184m

現時点の気象観測

当レポートは37分前の23:00(UTC)に作成
東/南東の風 6kt
気温 15°C
湿度 67%
気圧 1013 hPa
視程10km以上

METAR: UHWW 232300Z 11003MPS 9999 NSC 15/09 Q1013 R25L/0///70 NOSIG RMK QFE759

時間: 09:37 (23:37 UTC)

予報

当レポートは3時間40分前の19:57(UTC)に作成
予報は23日の 21時(UTC)から 24日の 21時(UTC)まで有効
東/北東の風 6kt
視程: 5000m
23日の 21時(UTC)から 23日の 24時(UTC)まで一時的に
視程: 3100m
高度1000ftの雲は散在している
24日の 0100時(UTC)から
の風 6kt
視程10km以上
高度3000ftの千切れ雲あり, 積乱雲.
24日の 04時(UTC)から 24日の 10時(UTC)まで一時的に
視程: 4000m
高度2000ftの千切れ雲あり, 積乱雲.
弱いにわか雨
24日の 11時(UTC)から 24日の 13時(UTC)まで徐々に
北西の風 6kt
高度3000ftの雲は散在している, 積乱雲.

TAF: UHWW 231957Z 2321/2421 07003MPS 5000 BR NSC TEMPO 2321/2324 3100 BR SCT010 FM240100 18003MPS 9999 BKN030CB TEMPO 2404/2410 4000 -SHRA BKN020CB BECMG 2411/2413 32003MPS SCT030CB

4,000以上の空港の気象観測と天気予報(METAR報とTAF報)

利用可能な観測所は地図上に黄色い丸と赤い丸で示す。

丸の上にカーソルを重ねると観測所名を参照できる。

次にクリックすると気象観測と天気予報を参照できる。

マップの切り替え:黒色「×」印の緑ボタンをクリックして拡大、「-」印の緑ボタンをクリックして縮小、緑色の三角印をクリックして隣りの地図に切り替え


METAR-TAF: